createdAt,value
2018-10-02T00:00:31.046Z,2.58
2018-10-02T00:03:05.591Z,2.50
2018-10-02T00:05:40.212Z,2.75
2018-10-02T00:08:14.448Z,2.02
2018-10-02T00:10:54.483Z,2.92
2018-10-02T00:13:34.412Z,1.90
2018-10-02T00:16:09.013Z,1.98
2018-10-02T00:18:44.993Z,2.42
2018-10-02T00:21:19.807Z,2.75
2018-10-02T00:23:55.022Z,3.30
2018-10-02T00:26:29.418Z,1.98
2018-10-02T00:29:03.703Z,3.52
2018-10-02T00:31:39.107Z,2.00
2018-10-02T00:34:13.697Z,2.80
2018-10-02T00:36:48.013Z,6.15
2018-10-02T00:39:23.739Z,2.65
2018-10-02T00:41:59.821Z,2.20
2018-10-02T00:44:34.255Z,2.92
2018-10-02T00:47:08.737Z,2.72
2018-10-02T00:49:43.052Z,2.30
2018-10-02T00:52:18.108Z,2.22
2018-10-02T00:54:52.408Z,2.92
2018-10-02T00:57:27.188Z,2.15
2018-10-02T01:00:01.745Z,1.82
2018-10-02T01:02:36.030Z,2.40
2018-10-02T01:05:10.304Z,1.90
2018-10-02T01:07:44.606Z,3.52
2018-10-02T01:10:18.929Z,2.33
2018-10-02T01:12:53.877Z,2.15
2018-10-02T01:15:28.592Z,2.40
2018-10-02T01:18:02.913Z,2.87
2018-10-02T01:20:37.265Z,2.37
2018-10-02T01:23:11.514Z,2.02
2018-10-02T01:25:45.819Z,2.72
2018-10-02T01:28:20.496Z,2.25
2018-10-02T01:30:55.321Z,2.05
2018-10-02T01:33:30.856Z,2.70
2018-10-02T01:36:07.551Z,2.30
2018-10-02T01:38:41.740Z,2.20
2018-10-02T01:41:16.077Z,3.27
2018-10-02T01:43:50.473Z,2.50
2018-10-02T01:46:24.716Z,2.02
2018-10-02T01:48:58.950Z,2.70
2018-10-02T01:51:33.356Z,2.40
2018-10-02T01:54:08.040Z,2.20
2018-10-02T01:56:42.460Z,2.75
2018-10-02T01:59:18.300Z,2.65
2018-10-02T02:01:52.647Z,2.47
2018-10-02T02:04:27.092Z,2.77
2018-10-02T02:07:01.408Z,2.20
2018-10-02T02:09:35.782Z,3.17
2018-10-02T02:12:10.269Z,2.40
2018-10-02T02:14:45.587Z,3.67
2018-10-02T02:17:20.966Z,2.22
2018-10-02T02:19:55.334Z,1.77
2018-10-02T02:22:29.933Z,2.20
2018-10-02T02:25:04.489Z,2.10
2018-10-02T02:27:40.551Z,2.83
2018-10-02T02:30:15.969Z,1.98
2018-10-02T02:32:50.607Z,2.42
2018-10-02T02:35:25.061Z,2.85
2018-10-02T02:37:59.972Z,2.17
2018-10-02T02:40:34.620Z,2.40
2018-10-02T02:43:09.075Z,2.50
2018-10-02T02:45:44.260Z,2.80
2018-10-02T02:48:23.777Z,3.95
2018-10-02T02:51:03.491Z,2.25
2018-10-02T02:53:38.474Z,2.67
2018-10-02T02:56:12.880Z,2.75
2018-10-02T02:58:47.044Z,2.55
2018-10-02T03:01:21.861Z,2.58
2018-10-02T03:03:56.346Z,3.17
2018-10-02T03:06:30.828Z,3.05
2018-10-02T03:09:07.155Z,3.52
2018-10-02T03:11:41.497Z,3.20
2018-10-02T03:14:15.868Z,5.87
2018-10-02T03:16:50.154Z,5.15
2018-10-02T03:19:24.450Z,4.15
2018-10-02T03:21:58.799Z,6.17
2018-10-02T03:24:33.097Z,7.00
2018-10-02T03:27:07.437Z,4.08
2018-10-02T03:29:41.683Z,3.45
2018-10-02T03:32:15.997Z,3.17
2018-10-02T03:34:50.182Z,3.90
2018-10-02T03:37:24.611Z,3.17
2018-10-02T03:39:59.814Z,2.77
2018-10-02T03:42:35.827Z,2.85
2018-10-02T03:45:10.105Z,3.55
2018-10-02T03:47:44.615Z,1.92
2018-10-02T03:50:19.097Z,3.33
2018-10-02T03:52:54.342Z,3.42
2018-10-02T03:55:28.621Z,3.62
2018-10-02T03:58:02.844Z,3.20
2018-10-02T04:00:37.781Z,3.50
2018-10-02T04:03:12.117Z,2.80
2018-10-02T04:05:46.321Z,2.92
2018-10-02T04:08:20.688Z,3.27
2018-10-02T04:10:55.270Z,2.72
2018-10-02T04:13:30.660Z,3.75
2018-10-02T04:16:05.021Z,4.62
2018-10-02T04:18:40.822Z,3.35
2018-10-02T04:21:18.969Z,3.55
2018-10-02T04:23:53.339Z,3.50
2018-10-02T04:26:29.141Z,2.92
2018-10-02T04:29:03.760Z,3.30
2018-10-02T04:31:38.900Z,3.50
2018-10-02T04:34:25.021Z,4.25
2018-10-02T04:36:59.561Z,3.50
2018-10-02T04:39:34.040Z,3.92
2018-10-02T04:42:08.357Z,4.58
2018-10-02T04:44:42.568Z,4.37
2018-10-02T04:47:17.009Z,3.62
2018-10-02T04:49:51.718Z,4.40
2018-10-02T04:52:26.733Z,4.65
2018-10-02T04:55:01.005Z,4.60
2018-10-02T04:57:35.737Z,4.35
2018-10-02T05:00:10.109Z,5.20
2018-10-02T05:02:44.862Z,5.72
2018-10-02T05:05:20.150Z,4.55
2018-10-02T05:07:54.589Z,5.75
2018-10-02T05:10:29.018Z,5.12
2018-10-02T05:13:03.271Z,6.05
2018-10-02T05:15:37.678Z,5.35
2018-10-02T05:18:13.016Z,6.42
2018-10-02T05:20:49.126Z,7.60
2018-10-02T05:23:23.665Z,7.17
2018-10-02T05:25:58.690Z,6.05
2018-10-02T05:28:32.951Z,6.53
2018-10-02T05:31:07.799Z,8.93
2018-10-02T05:33:42.268Z,7.75
2018-10-02T05:36:16.525Z,6.83
2018-10-02T05:38:51.081Z,7.45
2018-10-02T05:41:25.341Z,7.22
2018-10-02T05:44:01.312Z,8.05
2018-10-02T05:46:35.546Z,9.00
2018-10-02T05:49:11.009Z,9.28
2018-10-02T05:51:45.563Z,7.80
2018-10-02T05:54:19.891Z,7.83
2018-10-02T05:56:54.197Z,9.00
2018-10-02T05:59:28.820Z,9.80
2018-10-02T06:02:03.453Z,9.20
2018-10-02T06:04:37.837Z,11.95
2018-10-02T06:07:16.470Z,9.78
2018-10-02T06:09:51.092Z,9.83
2018-10-02T06:12:25.747Z,10.18
2018-10-02T06:15:00.412Z,12.50
2018-10-02T06:17:35.077Z,11.97
2018-10-02T06:20:09.401Z,11.40
2018-10-02T06:22:44.037Z,13.48
2018-10-02T06:25:19.089Z,12.68
2018-10-02T06:27:54.060Z,13.32
2018-10-02T06:30:28.506Z,14.13
2018-10-02T06:33:02.773Z,14.90
2018-10-02T06:35:38.242Z,14.93
2018-10-02T06:38:12.847Z,16.20
2018-10-02T06:40:47.133Z,17.10
2018-10-02T06:43:21.557Z,16.50
2018-10-02T06:45:55.888Z,18.85
2018-10-02T06:48:30.054Z,19.87
2018-10-02T06:51:04.421Z,20.43
2018-10-02T06:53:38.746Z,19.67
2018-10-02T06:56:13.281Z,21.55
2018-10-02T06:58:47.727Z,23.55
2018-10-02T07:01:23.600Z,20.02
2018-10-02T07:03:58.766Z,20.90
2018-10-02T07:06:33.928Z,22.07
2018-10-02T07:09:09.476Z,21.80
2018-10-02T07:11:45.646Z,23.98
2018-10-02T07:14:20.140Z,23.87
2018-10-02T07:16:54.597Z,26.02
2018-10-02T07:19:29.477Z,25.85
2018-10-02T07:22:03.797Z,25.10
2018-10-02T07:24:38.042Z,25.97
2018-10-02T07:27:12.730Z,24.85
2018-10-02T07:29:47.150Z,24.40
2018-10-02T07:32:21.703Z,25.77
2018-10-02T07:34:56.125Z,24.27
2018-10-02T07:37:30.806Z,22.80
2018-10-02T07:40:05.264Z,25.10
2018-10-02T07:42:39.474Z,27.27
2018-10-02T07:45:13.813Z,28.45
2018-10-02T07:47:48.726Z,24.43
2018-10-02T07:50:23.572Z,26.12
2018-10-02T07:52:57.960Z,24.35
2018-10-02T07:55:32.859Z,23.55
2018-10-02T07:58:06.994Z,20.88
2018-10-02T08:00:42.155Z,16.90
2018-10-02T08:03:16.964Z,17.30
2018-10-02T08:05:51.390Z,14.10
2018-10-02T08:08:25.906Z,17.20
2018-10-02T08:11:02.407Z,17.85
2018-10-02T08:13:37.121Z,15.95
2018-10-02T08:16:12.058Z,15.53
2018-10-02T08:18:46.481Z,13.28
2018-10-02T08:21:20.941Z,13.30
2018-10-02T08:23:56.371Z,11.38
2018-10-02T08:26:33.759Z,11.97
2018-10-02T08:29:08.562Z,9.93
2018-10-02T08:31:43.938Z,8.88
2018-10-02T08:34:18.270Z,10.03
2018-10-02T08:36:52.730Z,8.93
2018-10-02T08:39:27.040Z,9.23
2018-10-02T08:42:01.423Z,10.00
2018-10-02T08:44:35.698Z,7.62
2018-10-02T08:47:10.136Z,7.78
2018-10-02T08:49:44.454Z,7.33
2018-10-02T08:52:18.781Z,8.30
2018-10-02T08:54:53.022Z,7.20
2018-10-02T08:57:28.141Z,8.83
2018-10-02T09:00:04.150Z,9.40
2018-10-02T09:02:39.409Z,7.75
2018-10-02T09:05:13.820Z,8.20
2018-10-02T09:07:48.629Z,9.98
2018-10-02T09:10:27.645Z,7.45
2018-10-02T09:13:02.344Z,8.18
2018-10-02T09:15:36.768Z,7.50
2018-10-02T09:18:11.192Z,7.30
2018-10-02T09:20:46.516Z,8.68
2018-10-02T09:23:20.681Z,7.33
2018-10-02T09:25:56.253Z,9.50
2018-10-02T09:28:30.856Z,9.60
2018-10-02T09:31:11.838Z,10.43
2018-10-02T09:33:51.570Z,9.65
2018-10-02T09:36:31.546Z,9.28
2018-10-02T09:39:13.383Z,11.48
2018-10-02T09:41:53.057Z,9.98
2018-10-02T09:44:27.310Z,8.93
2018-10-02T09:47:01.750Z,9.40
2018-10-02T09:49:36.136Z,8.60
2018-10-02T09:52:10.658Z,8.30
2018-10-02T09:54:44.982Z,8.05
2018-10-02T09:57:19.405Z,9.05
2018-10-02T09:59:53.744Z,9.35
2018-10-02T10:02:33.862Z,10.78
2018-10-02T10:05:08.263Z,9.90
2018-10-02T10:07:42.483Z,10.50
2018-10-02T10:10:17.831Z,9.43
2018-10-02T10:12:52.125Z,9.15
2018-10-02T10:15:26.349Z,8.55
2018-10-02T10:18:00.602Z,10.45
2018-10-02T10:20:35.021Z,8.45
2018-10-02T10:23:09.206Z,10.20
2018-10-02T10:25:43.637Z,8.70
2018-10-02T10:28:18.146Z,9.18
2018-10-02T10:30:52.545Z,10.40
2018-10-02T10:33:26.913Z,10.28
2018-10-02T10:36:01.153Z,10.40
2018-10-02T10:38:36.242Z,10.40
2018-10-02T10:41:10.465Z,8.95
2018-10-02T10:43:44.867Z,9.23
2018-10-02T10:46:19.763Z,10.03
2018-10-02T10:48:54.952Z,10.72
2018-10-02T10:51:29.773Z,10.90
2018-10-02T10:54:04.891Z,8.88
2018-10-02T10:56:39.309Z,10.00
2018-10-02T10:59:13.833Z,8.75
2018-10-02T11:01:48.036Z,7.53
2018-10-02T11:04:22.748Z,7.50
2018-10-02T11:06:56.991Z,9.05
2018-10-02T11:09:32.069Z,8.65
2018-10-02T11:12:06.674Z,7.80
2018-10-02T11:14:41.717Z,9.13
2018-10-02T11:17:16.030Z,7.45
2018-10-02T11:19:50.432Z,7.42
2018-10-02T11:22:25.198Z,6.20
2018-10-02T11:24:59.409Z,4.72
2018-10-02T11:27:33.885Z,5.42
2018-10-02T11:30:08.595Z,4.28
2018-10-02T11:32:42.777Z,4.08
2018-10-02T11:35:17.243Z,3.10
2018-10-02T11:37:51.572Z,3.75
2018-10-02T11:40:26.181Z,3.80
2018-10-02T11:43:01.514Z,3.00
2018-10-02T11:45:36.154Z,2.80
2018-10-02T11:48:12.061Z,3.50
2018-10-02T11:50:46.440Z,3.00
2018-10-02T11:53:21.412Z,3.12
2018-10-02T11:55:56.145Z,3.80
2018-10-02T11:58:31.154Z,2.95
2018-10-02T12:01:07.109Z,3.62
2018-10-02T12:03:41.586Z,2.40
2018-10-02T12:06:15.909Z,3.15
2018-10-02T12:08:50.223Z,2.95
2018-10-02T12:11:25.015Z,2.40
2018-10-02T12:13:59.510Z,3.12
2018-10-02T12:16:34.404Z,2.65
2018-10-02T12:19:08.670Z,2.58
2018-10-02T12:21:43.569Z,2.70
2018-10-02T12:24:17.806Z,2.62
2018-10-02T12:26:52.079Z,2.83
2018-10-02T12:29:26.412Z,2.35
2018-10-02T12:32:00.845Z,2.20
2018-10-02T12:34:35.131Z,2.72
2018-10-02T12:37:09.410Z,2.10
2018-10-02T12:39:44.066Z,1.87
2018-10-02T12:42:18.533Z,1.50
2018-10-02T12:44:53.613Z,2.20
2018-10-02T12:47:29.295Z,1.60
2018-10-02T12:50:03.585Z,2.15
2018-10-02T12:52:39.824Z,2.20
2018-10-02T12:55:15.399Z,2.20
2018-10-02T12:57:49.841Z,2.80
2018-10-02T13:00:24.112Z,2.40
2018-10-02T13:02:58.411Z,3.08
2018-10-02T13:05:33.300Z,2.42
2018-10-02T13:08:12.430Z,2.60
2018-10-02T13:10:46.701Z,2.65
2018-10-02T13:13:21.025Z,2.77
2018-10-02T13:15:56.056Z,3.15
2018-10-02T13:18:39.968Z,2.80
2018-10-02T13:21:14.280Z,3.30
2018-10-02T13:23:48.649Z,2.77
2018-10-02T13:26:23.160Z,2.30
2018-10-02T13:28:57.615Z,2.22
2018-10-02T13:31:33.059Z,2.20
2018-10-02T13:34:07.269Z,2.62
2018-10-02T13:36:41.563Z,2.65
2018-10-02T13:39:15.864Z,2.42
2018-10-02T13:41:50.246Z,2.35
2018-10-02T13:44:24.502Z,2.20
2018-10-02T13:46:58.796Z,2.25
2018-10-02T13:49:35.501Z,2.05
2018-10-02T13:52:09.927Z,1.95
2018-10-02T13:54:45.130Z,1.60
2018-10-02T13:57:19.485Z,2.20
2018-10-02T13:59:53.873Z,1.70
2018-10-02T14:02:28.281Z,1.83
2018-10-02T14:05:03.666Z,2.30
2018-10-02T14:07:38.157Z,2.80
2018-10-02T14:10:13.264Z,2.50
2018-10-02T14:12:47.596Z,2.80
2018-10-02T14:15:21.989Z,2.33
2018-10-02T14:17:56.957Z,3.12
2018-10-02T14:20:31.463Z,3.10
2018-10-02T14:23:05.858Z,2.80
2018-10-02T14:25:40.190Z,3.07
2018-10-02T14:28:14.591Z,2.13
2018-10-02T14:30:49.965Z,2.03
2018-10-02T14:33:24.302Z,2.40
2018-10-02T14:35:58.716Z,2.13
2018-10-02T14:38:33.073Z,2.33
2018-10-02T14:41:08.460Z,4.00
2018-10-02T14:43:42.863Z,3.27
2018-10-02T14:46:17.211Z,3.37
2018-10-02T14:48:51.907Z,3.75
2018-10-02T14:51:26.386Z,3.80
2018-10-02T14:54:01.299Z,3.85
2018-10-02T14:56:35.687Z,4.90
2018-10-02T14:59:10.111Z,4.85
2018-10-02T15:01:44.428Z,4.83
2018-10-02T15:04:18.858Z,4.50
2018-10-02T15:06:53.300Z,5.20
2018-10-02T15:09:27.542Z,5.10
2018-10-02T15:12:01.961Z,4.83
2018-10-02T15:14:36.213Z,6.17
2018-10-02T15:17:10.801Z,5.22
2018-10-02T15:19:45.119Z,6.30
2018-10-02T15:22:19.501Z,5.87
2018-10-02T15:24:54.467Z,5.80
2018-10-02T15:27:33.622Z,6.57
2018-10-02T15:30:08.130Z,6.70
2018-10-02T15:32:43.539Z,6.97
2018-10-02T15:35:46.934Z,7.90
2018-10-02T15:38:21.601Z,7.90
2018-10-02T15:40:56.287Z,9.00
2018-10-02T15:43:31.728Z,8.00
2018-10-02T15:46:08.931Z,9.20
2018-10-02T15:48:43.683Z,11.33
2018-10-02T15:51:18.008Z,10.80
2018-10-02T15:54:01.737Z,12.17
2018-10-02T15:56:37.627Z,10.57
2018-10-02T15:59:13.163Z,10.27
2018-10-02T16:01:47.642Z,11.10
2018-10-02T16:04:22.065Z,11.60
2018-10-02T16:09:54.146Z,11.93
2018-10-02T16:12:39.028Z,12.07
2018-10-02T16:15:14.537Z,12.10
2018-10-02T16:17:49.218Z,12.40
2018-10-02T16:20:23.441Z,11.27
2018-10-02T16:22:57.882Z,14.63
2018-10-02T16:25:33.205Z,16.13
2018-10-02T16:28:08.084Z,15.93
2018-10-02T16:30:43.466Z,16.67
2018-10-02T16:33:18.060Z,16.80
2018-10-02T16:35:52.587Z,18.87
2018-10-02T16:38:29.581Z,18.07
2018-10-02T16:41:07.431Z,18.30
2018-10-02T16:46:30.653Z,14.90
2018-10-02T16:49:06.140Z,13.90
2018-10-02T16:51:40.443Z,12.60
2018-10-02T16:54:15.000Z,13.90
2018-10-02T16:59:29.803Z,15.83
2018-10-02T17:02:06.756Z,14.13
2018-10-02T17:04:41.996Z,15.87
2018-10-02T17:07:16.861Z,10.50
2018-10-02T17:09:51.339Z,14.47
2018-10-02T17:12:26.066Z,17.07
2018-10-02T17:15:00.597Z,17.07
2018-10-02T17:17:37.937Z,15.60
2018-10-02T17:20:12.502Z,14.60
2018-10-02T17:22:46.973Z,14.80
2018-10-02T17:25:21.628Z,16.07
2018-10-02T17:27:57.394Z,12.50
2018-10-02T17:30:31.884Z,13.10
2018-10-02T17:33:08.080Z,13.27
2018-10-02T17:35:44.117Z,14.23
2018-10-02T17:38:18.551Z,13.63
2018-10-02T17:40:53.041Z,12.93
2018-10-02T17:43:27.321Z,12.87
2018-10-02T17:46:02.446Z,10.87
2018-10-02T17:48:36.793Z,11.10
2018-10-02T17:51:24.644Z,10.97
2018-10-02T17:54:01.427Z,9.20
2018-10-02T17:56:35.978Z,10.87
2018-10-02T17:59:10.353Z,11.13
2018-10-02T18:01:44.907Z,11.70
2018-10-02T18:04:19.519Z,12.97
2018-10-02T18:06:54.346Z,9.93
2018-10-02T18:09:28.797Z,11.70
2018-10-02T18:12:03.294Z,15.00
2018-10-02T18:14:37.946Z,10.67
2018-10-02T18:17:12.988Z,8.70
2018-10-02T18:19:47.706Z,8.17
2018-10-02T18:22:22.282Z,8.00
2018-10-02T18:24:58.948Z,7.53
2018-10-02T18:27:33.677Z,7.50
2018-10-02T18:30:08.658Z,8.10
2018-10-02T18:32:46.917Z,7.03
2018-10-02T18:35:22.272Z,8.13
2018-10-02T18:37:57.474Z,6.87
2018-10-02T18:40:34.665Z,7.80
2018-10-02T18:43:15.217Z,7.57
2018-10-02T18:45:58.922Z,5.83
2018-10-02T18:48:39.748Z,5.00
2018-10-02T18:51:16.180Z,5.60
2018-10-02T18:53:54.158Z,6.27
2018-10-02T18:56:43.519Z,6.73
2018-10-02T18:59:25.349Z,5.60
2018-10-02T19:02:03.114Z,5.50
2018-10-02T19:04:37.635Z,5.40
2018-10-02T19:07:13.560Z,6.10
2018-10-02T19:09:48.074Z,5.93
2018-10-02T19:12:23.190Z,5.13
2018-10-02T19:14:59.726Z,6.13
2018-10-02T19:17:38.870Z,5.10
2018-10-02T19:20:18.920Z,5.40
2018-10-02T19:22:53.849Z,5.20
2018-10-02T19:25:33.642Z,4.57
2018-10-02T19:28:08.642Z,4.67
2018-10-02T19:30:49.061Z,4.30
2018-10-02T19:33:24.326Z,4.37
2018-10-02T19:35:59.459Z,4.67
2018-10-02T19:38:39.417Z,4.47
2018-10-02T19:41:14.456Z,4.60
2018-10-02T19:43:49.985Z,3.90
2018-10-02T19:46:32.083Z,3.53
2018-10-02T19:49:07.010Z,4.00
2018-10-02T19:51:47.615Z,3.90
2018-10-02T19:54:23.761Z,3.90
2018-10-02T19:56:58.862Z,3.40
2018-10-02T19:59:33.897Z,4.50
2018-10-02T20:02:09.699Z,3.70
2018-10-02T20:04:48.695Z,3.70
2018-10-02T20:07:25.394Z,3.40
2018-10-02T20:10:00.393Z,3.10
2018-10-02T20:12:35.497Z,4.10
2018-10-02T20:15:10.189Z,3.17
2018-10-02T20:17:44.857Z,4.10
2018-10-02T20:20:19.740Z,3.33
2018-10-02T20:22:55.054Z,2.97
2018-10-02T20:25:30.411Z,3.50
2018-10-02T20:28:05.360Z,3.93
2018-10-02T20:30:40.955Z,3.90
2018-10-02T20:33:15.843Z,4.17
2018-10-02T20:35:50.386Z,4.23
2018-10-02T20:38:25.002Z,3.97
2018-10-02T20:40:59.417Z,3.30
2018-10-02T20:43:34.800Z,3.17
2018-10-02T20:46:09.512Z,3.40
2018-10-02T20:48:44.024Z,3.60
2018-10-02T20:51:19.172Z,3.58
2018-10-02T20:53:54.638Z,3.02
2018-10-02T20:56:29.978Z,3.97
2018-10-02T20:59:04.926Z,4.97
2018-10-02T21:01:39.421Z,3.40
2018-10-02T21:04:14.022Z,4.17
2018-10-02T21:06:48.630Z,4.20
2018-10-02T21:09:23.338Z,5.40
2018-10-02T21:11:58.640Z,3.87
2018-10-02T21:17:15.920Z,3.93
2018-10-02T21:19:53.847Z,4.47
2018-10-02T21:22:28.755Z,3.37
2018-10-02T21:25:03.861Z,4.47
2018-10-02T21:27:39.247Z,3.83
2018-10-02T21:30:15.506Z,3.87
2018-10-02T21:32:50.632Z,6.17
2018-10-02T21:35:25.219Z,4.63
2018-10-02T21:38:02.453Z,4.47
2018-10-02T21:40:37.147Z,5.30
2018-10-02T21:43:12.103Z,3.97
2018-10-02T21:45:55.060Z,4.80
2018-10-02T21:48:30.746Z,3.50
2018-10-02T21:51:05.608Z,3.80
2018-10-02T21:53:40.395Z,4.47
2018-10-02T21:56:15.735Z,2.90
2018-10-02T21:58:51.691Z,3.60
2018-10-02T22:01:31.431Z,4.43
2018-10-02T22:04:05.910Z,3.83
2018-10-02T22:06:40.519Z,4.17
2018-10-02T22:09:15.033Z,5.77
2018-10-02T22:11:49.398Z,4.70
2018-10-02T22:14:24.007Z,5.30
2018-10-02T22:16:58.677Z,4.20
2018-10-02T22:19:35.780Z,5.23
2018-10-02T22:22:10.267Z,3.12
2018-10-02T22:24:45.809Z,4.07
2018-10-02T22:27:21.005Z,4.53
2018-10-02T22:29:56.546Z,3.87
2018-10-02T22:32:35.284Z,3.70
2018-10-02T22:35:10.822Z,3.77
2018-10-02T22:37:46.629Z,4.13
2018-10-02T22:40:22.596Z,3.10
2018-10-02T22:43:01.766Z,5.12
2018-10-02T22:45:40.869Z,4.70
2018-10-02T22:48:15.929Z,5.50
2018-10-02T22:50:51.753Z,5.22
2018-10-02T22:53:28.090Z,4.53
2018-10-02T22:56:03.454Z,3.72
2018-10-02T22:58:38.954Z,5.13
2018-10-02T23:01:13.998Z,4.93
2018-10-02T23:03:48.885Z,3.98
2018-10-02T23:12:00.069Z,4.40
2018-10-02T23:17:35.837Z,4.60
2018-10-02T23:20:19.475Z,4.58
2018-10-02T23:22:55.812Z,3.50
2018-10-02T23:25:31.276Z,3.85
2018-10-02T23:28:07.691Z,4.47
2018-10-02T23:30:46.315Z,5.00
2018-10-02T23:33:24.265Z,4.30
2018-10-02T23:36:03.281Z,4.22
2018-10-02T23:38:41.276Z,4.20
2018-10-02T23:41:18.099Z,5.00
2018-10-02T23:43:54.060Z,4.50
2018-10-02T23:46:32.624Z,5.08
2018-10-02T23:49:12.246Z,4.90
2018-10-02T23:51:49.968Z,6.22
2018-10-02T23:54:26.437Z,3.87
2018-10-02T23:57:04.693Z,5.97
2018-10-02T23:59:42.593Z,4.00
